Thunder radar more information blitzortung!


Radar de pluja more information rain snow radar


Visita la nostra xarxa de llocs de meteo:

Template documentation
and downloads

And another site



No particular awareness of the weather is required.    There are no Weather-warnings

Pagina Historial Weather Underground text

Diari Resum May 7, 2017 Unitats:  Mètric    Imperial   Tant
« Previous Dia
SegĂźent Dia »
Diari Setmana Mensual Anual Personalitzada
  Maxima: Minima: Media:
Temperatura: -17.8 °C -12 °C -8.6 °C
Punt de rosada: -17.8 °C -14.8 °C -12.4 °C
Humitat: Humidity % 36 % 65 %
Wind Speed: 0 km/h 0 km/h 11.6 km/h
RĂ fegues de vent: 0 km/h - -
Vent:- - ESE
Pression baro: 0 hPa 34428.8 hPa -
Precipitacions: 0 mm    
Historical Graphs
 
 
Dades de taula per May 7, 2017
Temps Temperatura Punt de rosada Pression baro Vent Wind Speed RĂ fegues de vent Humitat Rainfall Rate (Hourly)
-17.8 °C -17.8 °C 0 hPa Calm     Humidity % 0 mm
00:01 -9.6 °C -13.6 °C 34533.8 hPa ENE 9.3 km/h 9.3 km/h 62 % 0 mm
00:05 -11.4 °C -14.5 °C 34533.8 hPa ENE 2.6 km/h 5.1 km/h 69 % 0 mm
00:06 -9.6 °C -13.6 °C 34533.8 hPa NNE 11.9 km/h 11.9 km/h 62 % 0 mm
00:15 -11.6 °C -14.6 °C 34533.8 hPa Calm   2.6 km/h 70 % 0 mm
00:25 -11.7 °C -14.6 °C 34533.8 hPa Calm     70 % 0 mm
00:35 -11.8 °C -14.6 °C 34533.8 hPa WSW 2.6 km/h 2.6 km/h 71 % 0 mm
00:45 -11.9 °C -14.7 °C 34533.8 hPa WSW 2.6 km/h 5.1 km/h 71 % 0 mm
00:55 -11.9 °C -14.8 °C 34533.8 hPa WSW 5.1 km/h 5.1 km/h 70 % 0 mm
01:05 -11.8 °C -14.6 °C 34533.8 hPa WSW 2.6 km/h 5.1 km/h 71 % 0 mm
01:15 -11.8 °C -14.4 °C 34533.8 hPa Calm   2.6 km/h 73 % 0 mm
01:25 -11.9 °C -14.3 °C 34533.8 hPa Calm   2.6 km/h 74 % 0 mm
01:35 -11.9 °C -14.4 °C 34533.8 hPa Calm   2.6 km/h 74 % 0 mm
01:45 -12 °C -14.6 °C 34533.8 hPa North 2.6 km/h 2.6 km/h 73 % 0 mm
01:55 -11.9 °C -14.8 °C 34533.8 hPa North 2.6 km/h 5.1 km/h 71 % 0 mm
02:05 -11.9 °C -14.6 °C 34496.6 hPa Calm   7.7 km/h 72 % 0 mm
02:15 -11.8 °C -14.6 °C 34496.6 hPa NNW 2.6 km/h 5.1 km/h 71 % 0 mm
02:25 -11.7 °C -14.4 °C 34496.6 hPa Calm   2.6 km/h 72 % 0 mm
02:35 -11.6 °C -14.4 °C 34496.6 hPa WSW 5.1 km/h 7.7 km/h 71 % 0 mm
02:45 -11.7 °C -14.5 °C 34496.6 hPa WSW 5.1 km/h 10.3 km/h 71 % 0 mm
02:55 -11.6 °C -14.3 °C 34533.8 hPa WSW 5.1 km/h 7.7 km/h 72 % 0 mm
03:05 -11.4 °C -14.1 °C 34533.8 hPa SW 5.1 km/h 7.7 km/h 72 % 0 mm
03:15 -11.1 °C -13.7 °C 34533.8 hPa Calm   5.1 km/h 73 % 0 mm
03:25 -10.9 °C -13.6 °C 34533.8 hPa SW 5.1 km/h 5.1 km/h 72 % 0 mm
03:35 -10.6 °C -13.2 °C 34567.7 hPa SW 2.6 km/h 5.1 km/h 73 % 0 mm
03:45 -10.2 °C -12.9 °C 34567.7 hPa Calm   5.1 km/h 72 % 0 mm
03:55 -9.8 °C -12.8 °C 34533.8 hPa SE 5.1 km/h 5.1 km/h 70 % 0 mm
04:05 -9.6 °C -12.8 °C 34567.7 hPa East 2.6 km/h 7.7 km/h 68 % 0 mm
04:15 -9.6 °C -13.1 °C 34567.7 hPa NE 7.7 km/h 7.7 km/h 66 % 0 mm
04:25 -9.1 °C -12.7 °C 34567.7 hPa NE 7.7 km/h 10.3 km/h 65 % 0 mm
04:35 -9.1 °C -12.9 °C 34567.7 hPa NE 5.1 km/h 10.3 km/h 64 % 0 mm
04:45 -8.7 °C -12.7 °C 34567.7 hPa NE 7.7 km/h 7.7 km/h 63 % 0 mm
04:55 -8.5 °C -12.6 °C 34567.7 hPa NW 5.1 km/h 7.7 km/h 62 % 0 mm
05:05 -7.8 °C -12.2 °C 34567.7 hPa NW 2.6 km/h 7.7 km/h 60 % 0 mm
05:15 -7.8 °C -12.6 °C 34567.7 hPa ENE 7.7 km/h 10.3 km/h 57 % 0 mm
05:25 -7.6 °C -12.6 °C 34567.7 hPa ENE 2.6 km/h 7.7 km/h 56 % 0 mm
05:35 -7 °C -12.2 °C 34533.8 hPa East 2.6 km/h 5.1 km/h 55 % 0 mm
05:45 -6.8 °C -12.4 °C 34533.8 hPa SSW 5.1 km/h 7.7 km/h 52 % 0 mm
05:55 -6.7 °C -12.4 °C 34533.8 hPa SSE 2.6 km/h 12.9 km/h 52 % 0 mm
06:05 -6.8 °C -12.6 °C 34533.8 hPa SE 7.7 km/h 10.3 km/h 51 % 0 mm
06:15 -6.9 °C -12.6 °C 34533.8 hPa SE 5.1 km/h 10.3 km/h 52 % 0 mm
06:25 -6.7 °C -12.6 °C 34533.8 hPa SE 2.6 km/h 10.3 km/h 50 % 0 mm
06:35 -6.6 °C -12.4 °C 34533.8 hPa East 2.6 km/h 10.3 km/h 51 % 0 mm
06:45 -6.7 °C -12.6 °C 34533.8 hPa East 7.7 km/h 10.3 km/h 50 % 0 mm
06:55 -6.6 °C -12.7 °C 34567.7 hPa ENE 2.6 km/h 7.7 km/h 49 % 0 mm
07:05 -6.2 °C -12.4 °C 34567.7 hPa ENE 5.1 km/h 10.3 km/h 49 % 0 mm
07:15 -6.2 °C -12.6 °C 34567.7 hPa East 12.9 km/h 12.9 km/h 48 % 0 mm
07:25 -5.9 °C -12.5 °C 34533.8 hPa East 12.9 km/h 12.9 km/h 47 % 0 mm
07:35 -6.1 °C -12.8 °C 34533.8 hPa ESE 12.9 km/h 12.9 km/h 46 % 0 mm
07:45 -5.3 °C -12.3 °C 34533.8 hPa SE 5.1 km/h 7.7 km/h 45 % 0 mm
07:55 -5.8 °C -12.9 °C 34533.8 hPa East 2.6 km/h 10.3 km/h 44 % 0 mm
08:05 -5.5 °C -13 °C 34533.8 hPa East 7.7 km/h 12.9 km/h 42 % 0 mm
08:15 -5.1 °C -12.7 °C 34533.8 hPa SE 7.7 km/h 10.3 km/h 42 % 0 mm
08:25 -4.8 °C -12.8 °C 34533.8 hPa South 5.1 km/h 15.6 km/h 40 % 0 mm
08:35 -5.1 °C -13.1 °C 34533.8 hPa ESE 7.7 km/h 12.9 km/h 40 % 0 mm
08:45 -4.6 °C -12.8 °C 34533.8 hPa ESE 5.1 km/h 15.6 km/h 39 % 0 mm
08:55 -4.4 °C -13.3 °C 34496.6 hPa SW 7.7 km/h 15.6 km/h 36 % 0 mm
09:05 -4.2 °C -12.9 °C 34496.6 hPa SSW 5.1 km/h 12.9 km/h 37 % 0 mm
09:15 -4.4 °C -13.1 °C 34496.6 hPa SSE 7.7 km/h 10.3 km/h 37 % 0 mm
09:25 -4.3 °C -12.6 °C 34496.6 hPa SE 7.7 km/h 15.6 km/h 39 % 0 mm
09:35 -3.9 °C -12.7 °C 34496.6 hPa SE 5.1 km/h 10.3 km/h 37 % 0 mm
09:45 -4.2 °C -12.4 °C 34496.6 hPa SE 7.7 km/h 12.9 km/h 39 % 0 mm
09:55 -4.3 °C -12.1 °C 34462.7 hPa SE 15.6 km/h 20.8 km/h 41 % 0 mm
10:05 -4.2 °C -12.1 °C 34462.7 hPa ESE 7.7 km/h 15.6 km/h 41 % 0 mm
10:15 -4.5 °C -12.1 °C 34462.7 hPa ESE 12.9 km/h 15.6 km/h 42 % 0 mm
10:25 -4.8 °C -12.1 °C 34462.7 hPa ESE 18.2 km/h 25.9 km/h 44 % 0 mm
10:35 -5.3 °C -11.9 °C 34462.7 hPa ESE 23.3 km/h 28.5 km/h 47 % 0 mm
10:45 -5.6 °C -11.9 °C 34462.7 hPa ESE 23.3 km/h 28.5 km/h 48 % 0 mm
10:55 -5.7 °C -11.8 °C 34462.7 hPa East 23.3 km/h 38.8 km/h 50 % 0 mm
11:05 -6 °C -12.1 °C 34462.7 hPa East 12.9 km/h 25.9 km/h 50 % 0 mm
11:15 -6.2 °C -11.7 °C 34462.7 hPa East 18.2 km/h 33.6 km/h 53 % 0 mm
11:25 -6.3 °C -11.7 °C 34462.7 hPa ESE 20.8 km/h 23.3 km/h 54 % 0 mm
11:35 -6.4 °C -11.4 °C 34462.7 hPa ESE 18.2 km/h 25.9 km/h 56 % 0 mm
11:45 -6.2 °C -11.3 °C 34462.7 hPa ENE 15.6 km/h 20.8 km/h 56 % 0 mm
11:55 -6.4 °C -11.3 °C 34462.7 hPa NE 23.3 km/h 25.9 km/h 57 % 0 mm
12:05 -6.6 °C -11.3 °C 34428.8 hPa ENE 15.6 km/h 20.8 km/h 58 % 0 mm
12:15 -6.8 °C -11.2 °C 34428.8 hPa East 25.9 km/h 33.6 km/h 60 % 0 mm
12:25 -6.8 °C -11.2 °C 34462.7 hPa East 23.3 km/h 28.5 km/h 61 % 0 mm
12:35 -6.9 °C -11.1 °C 34462.7 hPa East 20.8 km/h 23.3 km/h 62 % 0 mm
12:45 -7 °C -11.2 °C 34462.7 hPa East 20.8 km/h 25.9 km/h 62 % 0 mm
17:49 -7.1 °C -11.2 °C 34428.8 hPa East 15 km/h 16.1 km/h 62 % 0 mm
17:55 -7.1 °C -11.3 °C 34428.8 hPa East 20.8 km/h 38.8 km/h 62 % 0 mm
18:00 -7.2 °C -11.3 °C 34428.8 hPa ENE 20.9 km/h 20.9 km/h 62 % 0 mm
18:05 -7.2 °C -11.3 °C 34428.8 hPa SE 32.8 km/h 32.8 km/h 62 % 0 mm
18:10 -7.3 °C -11.2 °C 34428.8 hPa East 12.9 km/h 28.5 km/h 64 % 0 mm
18:15 -7.3 °C -11.2 °C 34462.7 hPa East 20.9 km/h 20.9 km/h 64 % 0 mm
18:20 -7.4 °C -11.3 °C 34462.7 hPa ENE 26.9 km/h 26.9 km/h 64 % 0 mm
18:25 -7.4 °C -11.3 °C 34462.7 hPa ESE 26.9 km/h 26.9 km/h 64 % 0 mm
18:30 -7.5 °C -11.2 °C 34462.7 hPa ESE 38.8 km/h 38.8 km/h 65 % 0 mm
18:35 -7.6 °C -11.3 °C 34462.7 hPa ESE 26.9 km/h 26.9 km/h 65 % 0 mm
18:40 -7.7 °C -11.4 °C 34462.7 hPa East 23.3 km/h 38.8 km/h 65 % 0 mm
18:45 -7.7 °C -11.4 °C 34462.7 hPa ESE 18.2 km/h 33.6 km/h 65 % 0 mm
18:50 -7.7 °C -11.4 °C 34462.7 hPa East 12.9 km/h 25.9 km/h 65 % 0 mm
18:55 -7.8 °C -11.5 °C 34462.7 hPa East 32.8 km/h 32.8 km/h 65 % 0 mm
19:00 -7.8 °C -11.6 °C 34462.7 hPa ENE 20.9 km/h 20.9 km/h 65 % 0 mm
19:05 -7.9 °C -11.5 °C 34462.7 hPa SSE 29.8 km/h 29.8 km/h 66 % 0 mm
19:10 -8 °C -11.6 °C 34462.7 hPa ENE 23.8 km/h 23.8 km/h 66 % 0 mm
19:15 -8 °C -11.6 °C 34462.7 hPa ESE 17.9 km/h 19.2 km/h 66 % 0 mm
19:20 -8.1 °C -11.5 °C 34462.7 hPa ESE 20.9 km/h 20.9 km/h 67 % 0 mm
19:21 -8.1 °C -11.6 °C 34462.7 hPa ENE 20.9 km/h 20.9 km/h 66 % 0 mm
19:26 -8.1 °C -11.6 °C 34462.7 hPa ESE 26.9 km/h 26.9 km/h 66 % 0 mm
19:30 -10.1 °C -12.6 °C 34533.8 hPa NE 5.1 km/h 5.1 km/h 75 % 0 mm
19:31 -8.1 °C -11.6 °C 34462.7 hPa ESE 15 km/h 15 km/h 66 % 0 mm
19:36 -8.1 °C -11.6 °C 34462.7 hPa ENE 15 km/h 15 km/h 66 % 0 mm
19:40 -10.2 °C -12.6 °C 34533.8 hPa NE 5.1 km/h 7.7 km/h 75 % 0 mm
19:41 -8.2 °C -11.7 °C 34462.7 hPa ESE 20.9 km/h 20.9 km/h 66 % 0 mm
19:46 -8.3 °C -11.7 °C 34462.7 hPa ESE 17.9 km/h 17.9 km/h 67 % 0 mm
19:50 -10.2 °C -12.4 °C 34533.8 hPa NE 5.1 km/h 5.1 km/h 76 % 0 mm
19:51 -8.4 °C -11.6 °C 34462.7 hPa ESE 20.9 km/h 20.9 km/h 69 % 0 mm
19:53 -8.4 °C -11.6 °C 34462.7 hPa ESE 20.9 km/h 20.9 km/h 69 % 0 mm
19:58 -8.4 °C -11.6 °C 34462.7 hPa ENE 31.4 km/h 31.4 km/h 69 % 0 mm
20:00 -10.2 °C -12.4 °C 34533.8 hPa NNE 2.6 km/h 5.1 km/h 76 % 0 mm
20:03 -8.4 °C -11.5 °C 34462.7 hPa ENE 23.8 km/h 23.8 km/h 70 % 0 mm
20:08 -8.5 °C -11.6 °C 34462.7 hPa ESE 25.4 km/h 25.4 km/h 70 % 0 mm
20:10 -10.2 °C -12.4 °C 34533.8 hPa NNE 5.1 km/h 7.7 km/h 76 % 0 mm
20:13 -8.6 °C -11.7 °C 34462.7 hPa East 32.8 km/h 32.8 km/h 70 % 0 mm
20:18 -8.6 °C -11.7 °C 34462.7 hPa ESE 23.8 km/h 23.8 km/h 70 % 0 mm
20:20 -10.1 °C -12.4 °C 34496.6 hPa NNE 5.1 km/h 7.7 km/h 76 % 0 mm
20:23 -8.6 °C -11.7 °C 34462.7 hPa ESE 17.9 km/h 17.9 km/h 70 % 0 mm
20:28 -8.6 °C -11.6 °C 34496.6 hPa East 20.9 km/h 20.9 km/h 71 % 0 mm
20:30 -10.2 °C -12.4 °C 34496.6 hPa NNE 5.1 km/h 5.1 km/h 76 % 0 mm
20:33 -8.7 °C -11.5 °C 34496.6 hPa NE 15 km/h 15 km/h 72 % 0 mm
20:38 -8.7 °C -11.6 °C 34496.6 hPa ESE 17.9 km/h 17.9 km/h 72 % 0 mm
20:40 -10.2 °C -12.6 °C 34533.8 hPa NE 2.6 km/h 7.7 km/h 76 % 0 mm
20:43 -8.8 °C -11.6 °C 34496.6 hPa East 15 km/h 15 km/h 72 % 0 mm
20:48 -8.9 °C -11.7 °C 34496.6 hPa ENE 17.9 km/h 17.9 km/h 72 % 0 mm
20:50 -10.3 °C -12.6 °C 34533.8 hPa NE 2.6 km/h 2.6 km/h 76 % 0 mm
20:53 -8.9 °C -11.6 °C 34496.6 hPa ESE 26.9 km/h 26.9 km/h 73 % 0 mm
20:58 -9.1 °C -11.6 °C 34496.6 hPa East 20.9 km/h 20.9 km/h 74 % 0 mm
21:00 -10.3 °C -12.6 °C 34533.8 hPa Calm     76 % 0 mm
21:03 -9.1 °C -11.6 °C 34496.6 hPa ESE 20.9 km/h 20.9 km/h 74 % 0 mm
21:08 -9.1 °C -11.6 °C 34496.6 hPa ESE 23.3 km/h 23.3 km/h 75 % 0 mm
21:10 -10.4 °C -12.7 °C 34533.8 hPa NNE 2.6 km/h 2.6 km/h 76 % 0 mm
21:13 -9.2 °C -11.6 °C 34496.6 hPa NE 15 km/h 15 km/h 75 % 0 mm
21:18 -9.2 °C -11.6 °C 34496.6 hPa ESE 23.8 km/h 23.8 km/h 75 % 0 mm
21:20 -10.4 °C -12.7 °C 34533.8 hPa Calm   2.6 km/h 76 % 0 mm
21:23 -9.2 °C -11.6 °C 34496.6 hPa East 16.1 km/h 16.1 km/h 76 % 0 mm
21:28 -9.2 °C -11.7 °C 34533.8 hPa East 17.9 km/h 17.9 km/h 75 % 0 mm
21:30 -10.6 °C -12.8 °C 34533.8 hPa Calm     76 % 0 mm
21:33 -9.3 °C -11.6 °C 34533.8 hPa ESE 15 km/h 15 km/h 76 % 0 mm
21:38 -9.3 °C -11.7 °C 34533.8 hPa ENE 15 km/h 15 km/h 75 % 0 mm
21:40 -10.8 °C -13.1 °C 34533.8 hPa Calm     76 % 0 mm
21:43 -9.3 °C -11.7 °C 34533.8 hPa ESE 12.7 km/h 12.7 km/h 75 % 0 mm
21:49 -9.3 °C -11.8 °C 34533.8 hPa NE 17.9 km/h 17.9 km/h 75 % 0 mm
21:50 -10.9 °C -13.1 °C 34533.8 hPa WSW 5.1 km/h 5.1 km/h 77 % 0 mm
21:54 -9.3 °C -11.8 °C 34533.8 hPa ENE 15 km/h 15 km/h 75 % 0 mm
21:59 -9.3 °C -11.7 °C 34496.6 hPa ENE 11.9 km/h 11.9 km/h 76 % 0 mm
22:00 -10.9 °C -13.1 °C 34533.8 hPa WSW 2.6 km/h 5.1 km/h 77 % 0 mm
22:04 -9.3 °C -11.7 °C 34496.6 hPa ENE 11.9 km/h 11.9 km/h 76 % 0 mm
22:09 -9.4 °C -11.7 °C 34496.6 hPa NE 15 km/h 15 km/h 76 % 0 mm
22:10 -11 °C -13.1 °C 34533.8 hPa Calm     78 % 0 mm
22:14 -9.4 °C -11.8 °C 34533.8 hPa ENE 17.9 km/h 17.9 km/h 76 % 0 mm
22:19 -9.4 °C -11.8 °C 34533.8 hPa East 11.9 km/h 11.9 km/h 76 % 0 mm
22:20 -11.1 °C -13.2 °C 34533.8 hPa SW 2.6 km/h 5.1 km/h 78 % 0 mm
22:24 -9.4 °C -11.8 °C 34533.8 hPa NNE 6.3 km/h 6.3 km/h 76 % 0 mm
22:29 -9.5 °C -11.8 °C 34533.8 hPa NNE 9 km/h 9 km/h 76 % 0 mm
22:30 -11.2 °C -13.3 °C 34533.8 hPa Calm   5.1 km/h 78 % 0 mm
22:35 -9.5 °C -11.8 °C 34533.8 hPa ESE 11.9 km/h 11.9 km/h 76 % 0 mm
22:40 -9.6 °C -11.9 °C 34533.8 hPa East 9 km/h 9 km/h 76 % 0 mm
22:45 -9.6 °C -11.9 °C 34533.8 hPa ENE 9.3 km/h 9.3 km/h 76 % 0 mm
22:50 -9.7 °C -12 °C 34533.8 hPa NNE 11.9 km/h 11.9 km/h 76 % 0 mm
22:55 -9.7 °C -12.1 °C 34533.8 hPa NNE 9 km/h 9.8 km/h 76 % 0 mm
23:00 -9.7 °C -12.1 °C 34533.8 hPa ENE 9 km/h 9 km/h 76 % 0 mm
23:05 -9.8 °C -12.1 °C 34533.8 hPa NNE 11.9 km/h 11.9 km/h 76 % 0 mm
23:10 -9.8 °C -12.2 °C 34533.8 hPa NE 5.1 km/h 12.9 km/h 76 % 0 mm
23:15 -9.8 °C -12.2 °C 34533.8 hPa NE 11.9 km/h 11.9 km/h 76 % 0 mm
23:20 -9.9 °C -12.3 °C 34533.8 hPa NNE 9 km/h 9 km/h 75 % 0 mm
23:25 -9.9 °C -12.4 °C 34533.8 hPa NNE 11.9 km/h 11.9 km/h 75 % 0 mm
23:30 -9.9 °C -12.4 °C 34533.8 hPa NNE 9 km/h 9 km/h 75 % 0 mm
23:35 -9.9 °C -12.4 °C 34533.8 hPa NNE 9 km/h 9 km/h 75 % 0 mm
23:40 -9.9 °C -12.4 °C 34533.8 hPa NE 9 km/h 9 km/h 75 % 0 mm
23:45 -10 °C -12.4 °C 34533.8 hPa NE 11.9 km/h 11.9 km/h 75 % 0 mm
23:50 -10 °C -12.4 °C 34533.8 hPa NNE 10.3 km/h 10.3 km/h 75 % 0 mm
23:55 -10 °C -12.4 °C 34533.8 hPa ENE 9 km/h 9 km/h 75 % 0 mm
Meteo Sesrovires
Elogis d' Weather Underground - 1.5 mb

Guio original per  Jim McMurry - jmcmurry@mwt.net Adaptat per a la plantilla per  Wim van der Kuil - Leuven-Template.eu

Trobareu la nostra informacio del temps tambe a:

Weather Underground

AWEKAS